createdAt,value
2018-12-04T00:01:32.312Z,4.83
2018-12-04T00:04:00.779Z,4.17
2018-12-04T00:06:29.427Z,5.30
2018-12-04T00:08:58.249Z,5.90
2018-12-04T00:11:27.278Z,11.17
2018-12-04T00:13:55.680Z,5.10
2018-12-04T00:16:25.956Z,5.10
2018-12-04T00:18:54.579Z,5.40
2018-12-04T00:21:23.537Z,5.10
2018-12-04T00:23:52.254Z,5.47
2018-12-04T00:26:20.874Z,3.00
2018-12-04T00:31:50.249Z,4.20
2018-12-04T00:37:13.836Z,5.43
2018-12-04T00:39:56.898Z,8.30
2018-12-04T00:53:15.889Z,8.46
2018-12-04T00:55:48.843Z,3.07
2018-12-04T00:58:17.431Z,5.60
2018-12-04T02:00:15.125Z,4.22
2018-12-04T06:08:12.246Z,2.30
2018-12-04T06:10:42.333Z,5.20
2018-12-04T06:16:33.262Z,2.95
2018-12-04T06:21:45.778Z,4.45
2018-12-04T07:33:06.943Z,7.37
2018-12-04T07:35:38.643Z,7.00
2018-12-04T07:38:12.037Z,4.72
2018-12-04T07:40:42.034Z,4.70
2018-12-04T07:43:11.972Z,6.17
2018-12-04T07:45:41.886Z,5.33
2018-12-04T07:48:12.380Z,6.60
2018-12-04T07:50:42.530Z,4.05
2018-12-04T07:53:12.646Z,3.93
2018-12-04T08:20:41.735Z,9.23
2018-12-04T08:23:12.548Z,7.33
2018-12-04T08:25:45.705Z,4.30
2018-12-04T08:28:15.392Z,5.10
2018-12-04T09:19:31.626Z,4.37
2018-12-04T10:35:35.752Z,5.93
2018-12-04T11:15:52.012Z,6.72
2018-12-04T11:18:24.728Z,6.07
2018-12-04T11:20:55.547Z,7.10
2018-12-04T11:23:26.258Z,9.05
2018-12-04T11:29:34.620Z,6.23
2018-12-04T11:32:26.831Z,6.23
2018-12-04T11:35:02.972Z,6.30
2018-12-04T11:37:43.206Z,4.50
2018-12-04T11:40:18.530Z,7.83
2018-12-04T11:42:55.482Z,4.72
2018-12-04T11:45:40.171Z,4.80
2018-12-04T11:48:41.526Z,6.28
2018-12-04T11:51:16.815Z,7.15
2018-12-04T11:53:53.687Z,5.17
2018-12-04T11:56:25.876Z,6.22
2018-12-04T11:59:03.529Z,7.50
2018-12-04T12:01:42.671Z,11.07
2018-12-04T12:04:26.019Z,13.68
2018-12-04T12:07:03.142Z,12.55
2018-12-04T12:09:34.462Z,4.90
2018-12-04T12:12:04.456Z,13.03
2018-12-04T12:14:36.189Z,3.80
2018-12-04T12:17:08.249Z,4.12
2018-12-04T12:19:38.147Z,3.57
2018-12-04T12:22:06.630Z,3.67
2018-12-04T12:24:37.071Z,8.83
2018-12-04T12:27:08.039Z,3.43
2018-12-04T12:29:57.262Z,4.83
2018-12-04T12:32:27.098Z,3.58
2018-12-04T12:35:02.465Z,3.87
2018-12-04T12:37:35.909Z,2.73
2018-12-04T12:40:05.443Z,2.22
2018-12-04T12:42:38.047Z,4.00
2018-12-04T12:50:14.544Z,3.70
2018-12-04T12:52:44.529Z,3.20
2018-12-04T12:55:14.212Z,6.95
2018-12-04T12:57:46.535Z,3.53
2018-12-04T13:00:15.891Z,3.50
2018-12-04T13:02:45.336Z,6.73
2018-12-04T13:05:16.236Z,6.00
2018-12-04T13:07:46.311Z,2.85
2018-12-04T13:10:18.839Z,5.23
2018-12-04T13:12:52.620Z,4.17
2018-12-04T13:15:23.981Z,7.60
2018-12-04T13:17:55.139Z,5.00
2018-12-04T13:20:25.798Z,7.47
2018-12-04T13:23:01.306Z,3.63
2018-12-04T13:25:31.748Z,4.10
2018-12-04T13:28:01.584Z,6.13
2018-12-04T13:30:34.138Z,5.00
2018-12-04T13:33:03.636Z,4.40
2018-12-04T13:35:34.285Z,7.80
2018-12-04T13:38:07.953Z,7.62
2018-12-04T13:40:37.054Z,6.53
2018-12-04T13:43:07.242Z,5.23
2018-12-04T13:45:41.951Z,8.33
2018-12-04T13:48:12.928Z,7.13
2018-12-04T13:50:44.621Z,10.47
2018-12-04T13:53:14.944Z,3.98
2018-12-04T13:55:48.182Z,6.50
2018-12-04T13:58:19.350Z,4.77
2018-12-04T14:03:41.276Z,6.63
2018-12-04T14:06:12.592Z,4.10
2018-12-04T14:08:41.921Z,6.00
2018-12-04T14:11:14.328Z,5.08
2018-12-04T14:13:46.272Z,9.83
2018-12-04T14:16:15.113Z,4.20
2018-12-04T14:18:43.495Z,5.27
2018-12-04T14:21:11.974Z,7.03
2018-12-04T14:23:41.540Z,9.90
2018-12-04T14:26:10.508Z,5.35
2018-12-04T14:28:39.475Z,7.90
2018-12-04T14:31:09.762Z,5.60
2018-12-04T14:33:42.573Z,4.22
2018-12-04T14:36:16.492Z,10.90
2018-12-04T14:38:48.119Z,5.00
2018-12-04T14:41:19.319Z,10.68
2018-12-04T14:43:50.605Z,8.67
2018-12-04T14:46:21.841Z,5.77
2018-12-04T14:48:54.849Z,7.27
2018-12-04T14:54:27.924Z,6.37
2018-12-04T14:57:01.546Z,9.60
2018-12-04T14:59:32.164Z,6.37
2018-12-04T15:02:02.261Z,6.67
2018-12-04T15:04:36.177Z,5.93
2018-12-04T15:07:11.432Z,9.00
2018-12-04T15:09:43.940Z,6.87
2018-12-04T15:12:15.497Z,9.33
2018-12-04T15:14:48.548Z,8.05
2018-12-04T15:17:25.898Z,5.78
2018-12-04T15:19:58.730Z,10.17
2018-12-04T15:22:30.871Z,7.20
2018-12-04T15:25:02.129Z,12.20
2018-12-04T15:27:33.603Z,9.70
2018-12-04T15:30:05.913Z,11.80
2018-12-04T15:32:42.784Z,8.60
2018-12-04T15:35:13.049Z,9.95
2018-12-04T15:37:43.755Z,6.03
2018-12-04T15:40:13.509Z,11.20
2018-12-04T15:42:44.545Z,9.23
2018-12-04T15:45:13.239Z,11.87
2018-12-04T15:47:42.350Z,12.73
2018-12-04T15:50:15.219Z,11.65
2018-12-04T15:52:43.621Z,6.03
2018-12-04T15:55:12.782Z,7.80
2018-12-04T15:57:46.510Z,6.70
2018-12-04T16:00:16.378Z,8.83
2018-12-04T16:02:45.548Z,7.20
2018-12-04T16:05:15.300Z,9.00
2018-12-04T16:07:45.245Z,14.63
2018-12-04T16:10:16.981Z,10.67
2018-12-04T16:12:47.091Z,8.20
2018-12-04T16:15:17.056Z,8.53
2018-12-04T16:17:47.075Z,7.73
2018-12-04T16:20:17.068Z,10.07
2018-12-04T16:38:13.263Z,12.98
2018-12-04T16:40:43.947Z,7.20
2018-12-04T16:43:14.126Z,13.23
2018-12-04T16:45:44.259Z,7.53
2018-12-04T16:48:13.663Z,12.60
2018-12-04T16:50:43.059Z,9.23
2018-12-04T16:53:38.799Z,14.87
2018-12-04T17:04:43.995Z,17.00
2018-12-04T17:07:17.817Z,12.23
2018-12-04T17:09:46.230Z,18.07
2018-12-04T17:12:15.595Z,13.53
2018-12-04T17:14:44.803Z,13.70
2018-12-04T17:17:14.370Z,10.78
2018-12-04T17:19:43.546Z,17.27
2018-12-04T17:22:19.815Z,11.60
2018-12-04T17:24:50.656Z,15.20
2018-12-04T17:27:24.368Z,17.43
2018-12-04T17:29:57.671Z,8.73
2018-12-04T17:32:35.796Z,15.07
2018-12-04T17:35:09.942Z,11.43
2018-12-04T17:37:39.308Z,9.23
2018-12-04T17:40:08.433Z,10.10
2018-12-04T17:42:37.504Z,13.87
2018-12-04T17:45:06.866Z,16.73
2018-12-04T17:47:35.272Z,13.00
2018-12-04T17:50:05.782Z,13.10
2018-12-04T17:52:34.512Z,16.13
2018-12-04T17:55:03.231Z,15.20
2018-12-04T17:57:32.110Z,14.30
2018-12-04T18:00:01.196Z,13.05
2018-12-04T18:02:31.578Z,11.48
2018-12-04T18:05:00.768Z,8.83
2018-12-04T18:07:29.702Z,9.87
2018-12-04T18:09:59.203Z,10.33
2018-12-04T18:12:28.416Z,11.77
2018-12-04T18:14:58.632Z,14.17
2018-12-04T18:17:27.904Z,17.97
2018-12-04T18:19:57.343Z,15.20
2018-12-04T18:22:26.796Z,10.40
2018-12-04T18:42:07.152Z,12.20
2018-12-04T18:45:26.405Z,15.60
2018-12-04T18:48:06.929Z,19.00
2018-12-04T18:50:52.993Z,18.80
2018-12-04T18:53:33.821Z,30.37
2018-12-04T18:56:10.632Z,17.90
2018-12-04T19:01:44.602Z,18.90
2018-12-04T19:04:23.201Z,16.77
2018-12-04T19:07:16.046Z,24.00
2018-12-04T19:09:56.705Z,14.67
2018-12-04T19:12:53.004Z,19.80
2018-12-04T19:15:38.658Z,19.67
2018-12-04T19:29:40.001Z,11.63
2018-12-04T19:44:46.933Z,12.10
2018-12-04T19:47:16.465Z,16.37
2018-12-04T19:49:45.510Z,16.67
2018-12-04T19:52:16.863Z,19.00
2018-12-04T20:28:44.781Z,19.57
2018-12-04T20:37:35.187Z,17.20
2018-12-04T21:36:05.746Z,12.05
2018-12-04T21:39:29.206Z,19.63
2018-12-04T21:57:22.524Z,27.37
2018-12-04T22:00:03.449Z,15.50
2018-12-04T22:02:45.825Z,14.77
2018-12-04T22:05:19.671Z,15.00
2018-12-04T22:10:40.519Z,18.77
2018-12-04T22:13:16.217Z,18.17
2018-12-04T22:15:52.043Z,16.57
2018-12-04T22:18:28.553Z,17.90
2018-12-04T22:21:23.817Z,24.27
2018-12-04T22:23:56.322Z,22.23
2018-12-04T22:26:31.400Z,19.15
2018-12-04T22:29:05.274Z,15.18
2018-12-04T22:31:41.432Z,17.47
2018-12-04T22:34:14.464Z,18.37
2018-12-04T22:36:54.388Z,15.80
2018-12-04T22:39:30.381Z,15.43
2018-12-04T22:42:05.564Z,15.07
2018-12-04T22:44:40.871Z,14.33
2018-12-04T22:47:17.482Z,18.35
2018-12-04T22:49:53.808Z,17.90
2018-12-04T22:52:27.142Z,14.23
2018-12-04T22:55:10.624Z,11.23
2018-12-04T22:57:49.691Z,10.77
2018-12-04T23:00:35.053Z,17.70
2018-12-04T23:03:10.627Z,12.77
2018-12-04T23:05:44.223Z,15.07
2018-12-04T23:08:18.688Z,18.57
2018-12-04T23:10:51.794Z,24.60
2018-12-04T23:13:29.486Z,16.20
2018-12-04T23:18:45.500Z,19.13
2018-12-04T23:21:22.453Z,17.97
2018-12-04T23:23:55.969Z,19.63
2018-12-04T23:26:35.834Z,25.33
2018-12-04T23:29:14.744Z,18.30
2018-12-04T23:31:48.623Z,18.27
2018-12-04T23:34:32.114Z,17.93
2018-12-04T23:37:12.612Z,12.90
2018-12-04T23:39:51.822Z,12.57
2018-12-04T23:42:29.364Z,19.67
2018-12-04T23:45:06.557Z,17.73
2018-12-04T23:47:42.182Z,17.70
2018-12-04T23:50:21.882Z,10.33
2018-12-04T23:55:57.436Z,13.57
2018-12-04T23:58:44.431Z,13.60
